sensor_id;sensor_type;location;lat;lon;timestamp;pressure;altitude;pressure_sealevel;temperature;humidity
66857;BME280;53766;50.280;19.160;2023-05-23T00:01:05;98219.56;;;19.64;46.83
66857;BME280;53766;50.280;19.160;2023-05-23T00:03:35;98228.59;;;19.63;46.87
66857;BME280;53766;50.280;19.160;2023-05-23T00:06:05;98223.25;;;19.63;46.74
66857;BME280;53766;50.280;19.160;2023-05-23T00:08:32;98213.59;;;19.62;46.70
66857;BME280;53766;50.280;19.160;2023-05-23T00:11:00;98213.59;;;19.62;46.57
66857;BME280;53766;50.280;19.160;2023-05-23T00:13:27;98219.97;;;19.61;46.54
66857;BME280;53766;50.280;19.160;2023-05-23T00:15:55;98209.28;;;19.61;46.70
66857;BME280;53766;50.280;19.160;2023-05-23T00:18:23;98209.28;;;19.61;46.72
66857;BME280;53766;50.280;19.160;2023-05-23T00:20:51;98207.66;;;19.60;46.83
66857;BME280;53766;50.280;19.160;2023-05-23T00:23:19;98216.47;;;19.61;46.57
66857;BME280;53766;50.280;19.160;2023-05-23T00:25:47;98201.47;;;19.60;46.77
66857;BME280;53766;50.280;19.160;2023-05-23T00:28:19;98195.31;;;19.59;46.54
66857;BME280;53766;50.280;19.160;2023-05-23T00:30:47;98193.69;;;19.58;46.54
66857;BME280;53766;50.280;19.160;2023-05-23T00:33:18;98196.38;;;19.58;46.57
66857;BME280;53766;50.280;19.160;2023-05-23T00:35:48;98204.38;;;19.58;46.59
66857;BME280;53766;50.280;19.160;2023-05-23T00:38:16;98199.03;;;19.58;46.59
66857;BME280;53766;50.280;19.160;2023-05-23T00:40:44;98200.06;;;19.57;46.53
66857;BME280;53766;50.280;19.160;2023-05-23T00:43:11;98197.38;;;19.57;46.58
66857;BME280;53766;50.280;19.160;2023-05-23T00:45:39;98192.88;;;19.58;46.60
66857;BME280;53766;50.280;19.160;2023-05-23T00:48:07;98197.38;;;19.57;46.48
66857;BME280;53766;50.280;19.160;2023-05-23T00:50:35;98196.59;;;19.57;46.45
66857;BME280;53766;50.280;19.160;2023-05-23T00:53:02;98204.59;;;19.57;46.65
66857;BME280;53766;50.280;19.160;2023-05-23T00:55:31;98193.09;;;19.56;46.56
66857;BME280;53766;50.280;19.160;2023-05-23T00:57:58;98194.13;;;19.55;46.48
66857;BME280;53766;50.280;19.160;2023-05-23T01:00:26;98198.66;;;19.55;46.35
66857;BME280;53766;50.280;19.160;2023-05-23T01:02:55;98205.66;;;19.56;46.50
66857;BME280;53766;50.280;19.160;2023-05-23T01:05:23;98204.00;;;19.55;46.40
66857;BME280;53766;50.280;19.160;2023-05-23T01:07:52;98200.50;;;19.54;46.26
66857;BME280;53766;50.280;19.160;2023-05-23T01:10:23;98197.84;;;19.54;46.27
66857;BME280;53766;50.280;19.160;2023-05-23T01:13:21;98201.53;;;19.53;46.26
66857;BME280;53766;50.280;19.160;2023-05-23T01:16:25;98195.38;;;19.52;46.30
66857;BME280;53766;50.280;19.160;2023-05-23T01:18:58;98199.09;;;19.51;46.26
66857;BME280;53766;50.280;19.160;2023-05-23T01:21:31;98201.53;;;19.53;46.08
66857;BME280;53766;50.280;19.160;2023-05-23T01:24:29;98194.78;;;19.50;46.09
66857;BME280;53766;50.280;19.160;2023-05-23T01:27:44;98191.28;;;19.50;46.17
66857;BME280;53766;50.280;19.160;2023-05-23T01:30:17;98185.94;;;19.50;46.27
66857;BME280;53766;50.280;19.160;2023-05-23T01:32:47;98189.66;;;19.49;45.90
66857;BME280;53766;50.280;19.160;2023-05-23T01:35:23;98190.47;;;19.49;46.17
66857;BME280;53766;50.280;19.160;2023-05-23T01:37:55;98192.34;;;19.49;46.10
66857;BME280;53766;50.280;19.160;2023-05-23T01:40:23;98191.50;;;19.48;46.16
66857;BME280;53766;50.280;19.160;2023-05-23T01:42:54;98204.84;;;19.48;46.10
66857;BME280;53766;50.280;19.160;2023-05-23T01:45:25;98190.69;;;19.48;46.12
66857;BME280;53766;50.280;19.160;2023-05-23T01:47:55;98186.41;;;19.47;46.05
66857;BME280;53766;50.280;19.160;2023-05-23T01:50:23;98194.41;;;19.47;46.19
66857;BME280;53766;50.280;19.160;2023-05-23T01:52:52;98190.09;;;19.46;46.07
66857;BME280;53766;50.280;19.160;2023-05-23T01:55:20;98195.44;;;19.46;46.01
66857;BME280;53766;50.280;19.160;2023-05-23T01:57:54;98196.47;;;19.45;45.92
66857;BME280;53766;50.280;19.160;2023-05-23T02:00:22;98195.63;;;19.44;45.90
66857;BME280;53766;50.280;19.160;2023-05-23T02:02:50;98194.63;;;19.45;45.83
66857;BME280;53766;50.280;19.160;2023-05-23T02:05:18;98195.88;;;19.43;45.79
66857;BME280;53766;50.280;19.160;2023-05-23T02:07:45;98194.00;;;19.43;45.69
66857;BME280;53766;50.280;19.160;2023-05-23T02:10:13;98192.34;;;19.42;45.65
66857;BME280;53766;50.280;19.160;2023-05-23T02:12:40;98188.88;;;19.42;45.66
66857;BME280;53766;50.280;19.160;2023-05-23T02:15:08;98187.25;;;19.41;45.62
66857;BME280;53766;50.280;19.160;2023-05-23T02:17:36;98194.22;;;19.42;45.81
66857;BME280;53766;50.280;19.160;2023-05-23T02:20:05;98186.44;;;19.40;45.54
66857;BME280;53766;50.280;19.160;2023-05-23T02:22:34;98185.59;;;19.40;45.63
66857;BME280;53766;50.280;19.160;2023-05-23T02:25:02;98190.94;;;19.40;45.71
66857;BME280;53766;50.280;19.160;2023-05-23T02:27:29;98189.31;;;19.39;45.67
66857;BME280;53766;50.280;19.160;2023-05-23T02:29:57;98193.00;;;19.38;45.50
66857;BME280;53766;50.280;19.160;2023-05-23T02:32:25;98190.34;;;19.38;45.54
66857;BME280;53766;50.280;19.160;2023-05-23T02:34:52;98197.53;;;19.37;45.66
66857;BME280;53766;50.280;19.160;2023-05-23T02:37:23;98184.41;;;19.36;45.76
66857;BME280;53766;50.280;19.160;2023-05-23T02:39:50;98194.06;;;19.37;45.56
66857;BME280;53766;50.280;19.160;2023-05-23T02:42:18;98189.72;;;19.36;45.69
66857;BME280;53766;50.280;19.160;2023-05-23T02:44:45;98184.41;;;19.36;45.61
66857;BME280;53766;50.280;19.160;2023-05-23T02:47:13;98188.94;;;19.35;45.68
66857;BME280;53766;50.280;19.160;2023-05-23T02:49:40;98177.44;;;19.35;45.55
66857;BME280;53766;50.280;19.160;2023-05-23T02:52:08;98170.44;;;19.33;45.53
66857;BME280;53766;50.280;19.160;2023-05-23T02:54:35;98181.97;;;19.34;45.46
66857;BME280;53766;50.280;19.160;2023-05-23T02:57:03;98181.97;;;19.34;45.62
66857;BME280;53766;50.280;19.160;2023-05-23T02:59:30;98182.16;;;19.32;45.30
66857;BME280;53766;50.280;19.160;2023-05-23T03:01:58;98180.56;;;19.31;45.60
66857;BME280;53766;50.280;19.160;2023-05-23T03:04:26;98183.22;;;19.31;45.63
66857;BME280;53766;50.280;19.160;2023-05-23T03:06:54;98178.69;;;19.32;45.52
66857;BME280;53766;50.280;19.160;2023-05-23T03:09:21;98168.00;;;19.32;45.54
66857;BME280;53766;50.280;19.160;2023-05-23T03:11:49;98167.19;;;19.31;45.39
66857;BME280;53766;50.280;19.160;2023-05-23T03:14:17;98165.53;;;19.30;45.34
66857;BME280;53766;50.280;19.160;2023-05-23T03:16:45;98168.22;;;19.30;45.44
66857;BME280;53766;50.280;19.160;2023-05-23T03:19:12;98164.72;;;19.30;45.62
66857;BME280;53766;50.280;19.160;2023-05-23T03:21:40;98158.59;;;19.29;45.42
66857;BME280;53766;50.280;19.160;2023-05-23T03:24:08;98163.94;;;19.29;45.59
66857;BME280;53766;50.280;19.160;2023-05-23T03:26:35;98163.94;;;19.29;45.67
66857;BME280;53766;50.280;19.160;2023-05-23T03:29:03;98158.59;;;19.29;45.49
66857;BME280;53766;50.280;19.160;2023-05-23T03:31:30;98174.59;;;19.29;45.55
66857;BME280;53766;50.280;19.160;2023-05-23T03:33:58;98155.91;;;19.29;45.37
66857;BME280;53766;50.280;19.160;2023-05-23T03:36:25;98156.53;;;19.31;45.63
66857;BME280;53766;50.280;19.160;2023-05-23T03:38:54;98158.13;;;19.32;45.75
66857;BME280;53766;50.280;19.160;2023-05-23T03:41:22;98163.47;;;19.32;45.48
66857;BME280;53766;50.280;19.160;2023-05-23T03:43:49;98155.47;;;19.32;45.65
66857;BME280;53766;50.280;19.160;2023-05-23T03:46:17;98158.13;;;19.32;45.63
66857;BME280;53766;50.280;19.160;2023-05-23T03:48:44;98149.31;;;19.32;45.70
66857;BME280;53766;50.280;19.160;2023-05-23T03:51:12;98154.41;;;19.33;45.62
66857;BME280;53766;50.280;19.160;2023-05-23T03:53:40;98153.59;;;19.33;45.39
66857;BME280;53766;50.280;19.160;2023-05-23T03:56:07;98154.41;;;19.33;45.52
66857;BME280;53766;50.280;19.160;2023-05-23T03:58:35;98156.06;;;19.35;45.69
66857;BME280;53766;50.280;19.160;2023-05-23T04:01:02;98161.41;;;19.35;45.59
66857;BME280;53766;50.280;19.160;2023-05-23T04:03:31;98157.69;;;19.36;45.55
66857;BME280;53766;50.280;19.160;2023-05-23T04:06:00;98150.72;;;19.35;45.51
66857;BME280;53766;50.280;19.160;2023-05-23T04:08:27;98153.19;;;19.36;45.59
66857;BME280;53766;50.280;19.160;2023-05-23T04:10:56;98152.34;;;19.36;45.35
66857;BME280;53766;50.280;19.160;2023-05-23T04:13:23;98157.69;;;19.36;45.38
66857;BME280;53766;50.280;19.160;2023-05-23T04:15:53;98152.34;;;19.36;45.57
66857;BME280;53766;50.280;19.160;2023-05-23T04:18:22;98156.06;;;19.35;45.40
66857;BME280;53766;50.280;19.160;2023-05-23T04:20:50;98155.88;;;19.36;45.31
66857;BME280;53766;50.280;19.160;2023-05-23T04:23:17;98154.00;;;19.37;45.39
66857;BME280;53766;50.280;19.160;2023-05-23T04:25:45;98154.00;;;19.37;45.40
66857;BME280;53766;50.280;19.160;2023-05-23T04:28:14;98152.94;;;19.38;45.49
66857;BME280;53766;50.280;19.160;2023-05-23T04:30:43;98152.94;;;19.38;45.23
66857;BME280;53766;50.280;19.160;2023-05-23T04:33:11;98156.47;;;19.38;45.42
66857;BME280;53766;50.280;19.160;2023-05-23T04:35:39;98157.28;;;19.39;45.33
66857;BME280;53766;50.280;19.160;2023-05-23T04:38:07;98148.22;;;19.40;45.34
66857;BME280;53766;50.280;19.160;2023-05-23T04:40:35;98149.88;;;19.41;45.25
66857;BME280;53766;50.280;19.160;2023-05-23T04:43:02;98140.81;;;19.42;45.25
66857;BME280;53766;50.280;19.160;2023-05-23T04:45:30;98149.63;;;19.42;45.37
66857;BME280;53766;50.280;19.160;2023-05-23T04:47:57;98145.13;;;19.43;45.35
66857;BME280;53766;50.280;19.160;2023-05-23T04:50:25;98145.72;;;19.45;45.60
66857;BME280;53766;50.280;19.160;2023-05-23T04:52:54;98141.19;;;19.45;45.39
66857;BME280;53766;50.280;19.160;2023-05-23T04:55:23;98138.31;;;19.47;45.48
66857;BME280;53766;50.280;19.160;2023-05-23T04:57:50;98133.78;;;19.47;45.50
66857;BME280;53766;50.280;19.160;2023-05-23T05:00:18;98133.56;;;19.49;45.59
66857;BME280;53766;50.280;19.160;2023-05-23T05:02:46;98140.53;;;19.50;45.81
66857;BME280;53766;50.280;19.160;2023-05-23T05:05:14;98133.34;;;19.50;45.65
66857;BME280;53766;50.280;19.160;2023-05-23T05:07:41;98130.47;;;19.52;45.68
66857;BME280;53766;50.280;19.160;2023-05-23T05:10:09;98125.72;;;19.54;45.53
66857;BME280;53766;50.280;19.160;2023-05-23T05:12:44;98123.44;;;19.58;45.75
66857;BME280;53766;50.280;19.160;2023-05-23T05:15:18;98133.47;;;19.62;45.53
66857;BME280;53766;50.280;19.160;2023-05-23T05:17:45;98134.66;;;19.66;45.64
66857;BME280;53766;50.280;19.160;2023-05-23T05:20:16;98135.88;;;19.70;45.56
66857;BME280;53766;50.280;19.160;2023-05-23T05:22:44;98136.47;;;19.72;45.53
66857;BME280;53766;50.280;19.160;2023-05-23T05:25:12;98122.88;;;19.74;45.71
66857;BME280;53766;50.280;19.160;2023-05-23T05:27:40;98127.44;;;19.73;45.60
66857;BME280;53766;50.280;19.160;2023-05-23T05:30:08;98127.44;;;19.73;45.45
66857;BME280;53766;50.280;19.160;2023-05-23T05:32:36;98129.03;;;19.75;45.09
66857;BME280;53766;50.280;19.160;2023-05-23T05:35:04;98126.81;;;19.71;45.33
66857;BME280;53766;50.280;19.160;2023-05-23T05:37:31;98124.38;;;19.70;45.35
66857;BME280;53766;50.280;19.160;2023-05-23T05:39:58;98121.88;;;19.68;45.22
66857;BME280;53766;50.280;19.160;2023-05-23T05:42:32;98126.66;;;19.66;45.03
66857;BME280;53766;50.280;19.160;2023-05-23T05:45:00;98125.00;;;19.65;45.10
66857;BME280;53766;50.280;19.160;2023-05-23T05:47:27;98127.06;;;19.63;44.91
66857;BME280;53766;50.280;19.160;2023-05-23T05:49:55;98125.66;;;19.61;45.30
66857;BME280;53766;50.280;19.160;2023-05-23T05:52:22;98129.34;;;19.60;45.24
66857;BME280;53766;50.280;19.160;2023-05-23T05:54:50;98124.84;;;19.60;45.12
66857;BME280;53766;50.280;19.160;2023-05-23T05:57:17;98119.72;;;19.59;45.02
66857;BME280;53766;50.280;19.160;2023-05-23T05:59:45;98118.91;;;19.58;45.12
66857;BME280;53766;50.280;19.160;2023-05-23T06:02:12;98124.25;;;19.58;45.04
66857;BME280;53766;50.280;19.160;2023-05-23T06:04:40;98122.59;;;19.57;44.70
66857;BME280;53766;50.280;19.160;2023-05-23T06:07:07;98115.63;;;19.56;45.13
66857;BME280;53766;50.280;19.160;2023-05-23T06:09:35;98110.28;;;19.56;45.23
66857;BME280;53766;50.280;19.160;2023-05-23T06:12:03;98107.84;;;19.55;45.10
66857;BME280;53766;50.280;19.160;2023-05-23T06:14:30;98109.47;;;19.56;44.95
66857;BME280;53766;50.280;19.160;2023-05-23T06:16:58;98111.09;;;19.57;45.05
66857;BME280;53766;50.280;19.160;2023-05-23T06:19:26;98101.22;;;19.57;45.09
66857;BME280;53766;50.280;19.160;2023-05-23T06:21:53;98106.56;;;19.57;45.27
66857;BME280;53766;50.280;19.160;2023-05-23T06:24:21;98106.56;;;19.57;45.39
66857;BME280;53766;50.280;19.160;2023-05-23T06:26:48;98105.75;;;19.57;45.21
66857;BME280;53766;50.280;19.160;2023-05-23T06:29:16;98111.09;;;19.57;45.38
66857;BME280;53766;50.280;19.160;2023-05-23T06:31:43;98106.56;;;19.57;45.29
66857;BME280;53766;50.280;19.160;2023-05-23T06:34:11;98101.22;;;19.57;45.24
66857;BME280;53766;50.280;19.160;2023-05-23T06:36:38;98100.22;;;19.58;45.35
66857;BME280;53766;50.280;19.160;2023-05-23T06:39:06;98097.53;;;19.58;45.26
66857;BME280;53766;50.280;19.160;2023-05-23T06:41:35;98097.28;;;19.60;45.44
66857;BME280;53766;50.280;19.160;2023-05-23T06:44:03;98101.63;;;19.61;45.13
66857;BME280;53766;50.280;19.160;2023-05-23T06:46:30;98097.69;;;19.63;45.10
66857;BME280;53766;50.280;19.160;2023-05-23T06:48:58;98096.66;;;19.64;45.07
66857;BME280;53766;50.280;19.160;2023-05-23T06:51:40;98099.94;;;19.66;44.97
66857;BME280;53766;50.280;19.160;2023-05-23T06:54:08;98095.16;;;19.68;45.07
66857;BME280;53766;50.280;19.160;2023-05-23T06:56:36;98083.47;;;19.69;45.21
66857;BME280;53766;50.280;19.160;2023-05-23T06:59:04;98087.78;;;19.70;45.21
66857;BME280;53766;50.280;19.160;2023-05-23T07:01:31;98090.03;;;19.73;45.34
66857;BME280;53766;50.280;19.160;2023-05-23T07:03:59;98080.94;;;19.75;45.41
66857;BME280;53766;50.280;19.160;2023-05-23T07:06:26;98079.94;;;19.76;45.42
66857;BME280;53766;50.280;19.160;2023-05-23T07:08:54;98081.34;;;19.78;45.39
66857;BME280;53766;50.280;19.160;2023-05-23T07:11:21;98076.81;;;19.79;45.35
66857;BME280;53766;50.280;19.160;2023-05-23T07:13:49;98073.09;;;19.80;45.49
66857;BME280;53766;50.280;19.160;2023-05-23T07:16:17;98075.53;;;19.81;45.56
66857;BME280;53766;50.280;19.160;2023-05-23T07:18:45;98075.31;;;19.83;45.49
66857;BME280;53766;50.280;19.160;2023-05-23T07:21:12;98073.47;;;19.83;45.64
66857;BME280;53766;50.280;19.160;2023-05-23T07:23:40;98071.63;;;19.84;45.66
66857;BME280;53766;50.280;19.160;2023-05-23T07:26:07;98072.19;;;19.86;45.46
66857;BME280;53766;50.280;19.160;2023-05-23T07:28:36;98076.50;;;19.87;45.51
66857;BME280;53766;50.280;19.160;2023-05-23T07:31:03;98068.50;;;19.87;45.62
66857;BME280;53766;50.280;19.160;2023-05-23T07:33:31;98070.13;;;19.88;45.69
66857;BME280;53766;50.280;19.160;2023-05-23T07:36:00;98061.06;;;19.89;45.83
66857;BME280;53766;50.280;19.160;2023-05-23T07:38:28;98063.53;;;19.90;45.75
66857;BME280;53766;50.280;19.160;2023-05-23T07:40:55;98065.97;;;19.92;45.86
66857;BME280;53766;50.280;19.160;2023-05-23T07:43:38;98063.88;;;19.94;45.91
66857;BME280;53766;50.280;19.160;2023-05-23T07:46:06;98069.22;;;19.94;45.68
66857;BME280;53766;50.280;19.160;2023-05-23T07:48:34;98066.34;;;19.96;45.70
66857;BME280;53766;50.280;19.160;2023-05-23T07:51:01;98079.50;;;19.97;45.59
66857;BME280;53766;50.280;19.160;2023-05-23T07:53:29;98070.44;;;19.98;45.74
66857;BME280;53766;50.280;19.160;2023-05-23T07:55:56;98062.19;;;20.00;45.90
66857;BME280;53766;50.280;19.160;2023-05-23T07:58:24;98055.78;;;20.01;45.79
66857;BME280;53766;50.280;19.160;2023-05-23T08:00:51;98055.56;;;20.02;45.78
66857;BME280;53766;50.280;19.160;2023-05-23T08:03:19;98049.19;;;20.03;45.87
66857;BME280;53766;50.280;19.160;2023-05-23T08:05:47;98049.19;;;20.03;45.96
66857;BME280;53766;50.280;19.160;2023-05-23T08:08:15;98051.41;;;20.06;45.86
66857;BME280;53766;50.280;19.160;2023-05-23T08:10:42;98048.75;;;20.06;45.92
66857;BME280;53766;50.280;19.160;2023-05-23T08:13:12;98047.69;;;20.07;46.03
66857;BME280;53766;50.280;19.160;2023-05-23T08:15:39;98045.63;;;20.09;45.98
66857;BME280;53766;50.280;19.160;2023-05-23T08:18:07;98052.59;;;20.10;45.91
66857;BME280;53766;50.280;19.160;2023-05-23T08:20:34;98048.88;;;20.11;45.80
66857;BME280;53766;50.280;19.160;2023-05-23T08:23:02;98041.66;;;20.12;46.00
66857;BME280;53766;50.280;19.160;2023-05-23T08:25:29;98046.81;;;20.13;45.96
66857;BME280;53766;50.280;19.160;2023-05-23T08:28:00;98046.38;;;20.17;46.12
66857;BME280;53766;50.280;19.160;2023-05-23T08:30:28;98048.00;;;20.18;46.00
66857;BME280;53766;50.280;19.160;2023-05-23T08:32:56;98048.00;;;20.18;45.91
66857;BME280;53766;50.280;19.160;2023-05-23T08:35:24;98050.66;;;20.18;45.98
66857;BME280;53766;50.280;19.160;2023-05-23T08:37:51;98053.34;;;20.18;46.19
66857;BME280;53766;50.280;19.160;2023-05-23T08:40:20;98045.91;;;20.20;45.98
66857;BME280;53766;50.280;19.160;2023-05-23T08:42:49;98041.63;;;20.19;46.03
66857;BME280;53766;50.280;19.160;2023-05-23T08:45:17;98043.22;;;20.20;46.16
66857;BME280;53766;50.280;19.160;2023-05-23T08:47:45;98038.47;;;20.22;45.94
66857;BME280;53766;50.280;19.160;2023-05-23T08:50:15;98035.59;;;20.23;45.96
66857;BME280;53766;50.280;19.160;2023-05-23T08:52:53;98031.06;;;20.24;45.93
66857;BME280;53766;50.280;19.160;2023-05-23T08:55:27;98033.50;;;20.25;46.03
66857;BME280;53766;50.280;19.160;2023-05-23T08:57:59;98034.31;;;20.26;46.11
66857;BME280;53766;50.280;19.160;2023-05-23T09:00:27;98024.22;;;20.28;46.02
66857;BME280;53766;50.280;19.160;2023-05-23T09:02:54;98028.50;;;20.29;46.00
66857;BME280;53766;50.280;19.160;2023-05-23T09:05:23;98030.16;;;20.30;46.06
66857;BME280;53766;50.280;19.160;2023-05-23T09:07:52;98029.69;;;20.33;46.17
66857;BME280;53766;50.280;19.160;2023-05-23T09:10:21;98027.00;;;20.33;46.09
66857;BME280;53766;50.280;19.160;2023-05-23T09:12:49;98024.72;;;20.37;45.92
66857;BME280;53766;50.280;19.160;2023-05-23T09:15:17;98031.47;;;20.39;46.09
66857;BME280;53766;50.280;19.160;2023-05-23T09:17:44;98027.50;;;20.42;45.89
66857;BME280;53766;50.280;19.160;2023-05-23T09:20:14;98024.63;;;20.43;46.04
66857;BME280;53766;50.280;19.160;2023-05-23T09:22:47;98027.28;;;20.43;46.20
66857;BME280;53766;50.280;19.160;2023-05-23T09:25:15;98027.88;;;20.45;45.99
66857;BME280;53766;50.280;19.160;2023-05-23T09:27:43;98018.00;;;20.46;46.10
66857;BME280;53766;50.280;19.160;2023-05-23T09:30:14;98020.44;;;20.47;46.14
66857;BME280;53766;50.280;19.160;2023-05-23T09:32:42;98022.88;;;20.49;45.97
66857;BME280;53766;50.280;19.160;2023-05-23T09:35:10;98019.97;;;20.50;46.06
66857;BME280;53766;50.280;19.160;2023-05-23T09:37:44;98020.78;;;20.51;46.22
66857;BME280;53766;50.280;19.160;2023-05-23T09:40:13;98012.53;;;20.52;46.12
66857;BME280;53766;50.280;19.160;2023-05-23T09:42:43;98014.19;;;20.53;46.04
66857;BME280;53766;50.280;19.160;2023-05-23T09:45:12;98006.72;;;20.55;46.25
66857;BME280;53766;50.280;19.160;2023-05-23T09:47:50;98009.22;;;20.57;46.14
66857;BME280;53766;50.280;19.160;2023-05-23T09:50:19;98010.03;;;20.58;46.08
66857;BME280;53766;50.280;19.160;2023-05-23T09:52:47;98007.94;;;20.60;46.03
66857;BME280;53766;50.280;19.160;2023-05-23T09:55:15;98005.25;;;20.60;46.00
66857;BME280;53766;50.280;19.160;2023-05-23T09:57:43;98004.22;;;20.61;45.91
66857;BME280;53766;50.280;19.160;2023-05-23T10:00:12;98005.03;;;20.61;45.83
66857;BME280;53766;50.280;19.160;2023-05-23T10:05:43;98000.06;;;20.65;45.75
66857;BME280;53766;50.280;19.160;2023-05-23T10:08:24;97999.00;;;20.66;45.81
66857;BME280;53766;50.280;19.160;2023-05-23T10:13:25;98000.41;;;20.68;45.68
66857;BME280;53766;50.280;19.160;2023-05-23T10:16:04;97993.44;;;20.67;45.49
66857;BME280;53766;50.280;19.160;2023-05-23T10:18:40;97991.13;;;20.71;45.38
66857;BME280;53766;50.280;19.160;2023-05-23T10:21:18;97989.25;;;20.71;45.37
66857;BME280;53766;50.280;19.160;2023-05-23T10:23:48;97986.31;;;20.73;45.35
66857;BME280;53766;50.280;19.160;2023-05-23T10:26:16;97979.34;;;20.72;45.33
66857;BME280;53766;50.280;19.160;2023-05-23T10:28:46;97982.84;;;20.72;45.34
66857;BME280;53766;50.280;19.160;2023-05-23T10:31:16;97986.31;;;20.73;45.23
66857;BME280;53766;50.280;19.160;2023-05-23T10:33:53;97980.53;;;20.76;45.26
66857;BME280;53766;50.280;19.160;2023-05-23T10:36:32;97981.34;;;20.77;45.24
66857;BME280;53766;50.280;19.160;2023-05-23T10:39:07;97976.34;;;20.80;45.06
66857;BME280;53766;50.280;19.160;2023-05-23T10:41:47;97973.41;;;20.82;44.84
66857;BME280;53766;50.280;19.160;2023-05-23T10:44:26;97975.06;;;20.83;44.90
66857;BME280;53766;50.280;19.160;2023-05-23T10:46:56;97972.16;;;20.84;44.80
66857;BME280;53766;50.280;19.160;2023-05-23T10:49:47;97981.00;;;20.85;44.66
66857;BME280;53766;50.280;19.160;2023-05-23T10:52:18;97967.41;;;20.86;44.70
66857;BME280;53766;50.280;19.160;2023-05-23T10:54:47;97964.47;;;20.88;44.70
66857;BME280;53766;50.280;19.160;2023-05-23T10:57:18;97966.72;;;20.91;44.61
66857;BME280;53766;50.280;19.160;2023-05-23T10:59:49;97967.50;;;20.91;44.45
66857;BME280;53766;50.280;19.160;2023-05-23T11:02:18;97963.78;;;20.92;44.47
66857;BME280;53766;50.280;19.160;2023-05-23T11:05:18;97968.09;;;20.93;44.56
66857;BME280;53766;50.280;19.160;2023-05-23T11:08:10;97969.97;;;20.93;44.47
66857;BME280;53766;50.280;19.160;2023-05-23T11:10:59;97960.06;;;20.93;44.43
66857;BME280;53766;50.280;19.160;2023-05-23T11:16:39;97964.94;;;20.96;44.26
66857;BME280;53766;50.280;19.160;2023-05-23T11:21:50;97947.38;;;21.01;44.34
66857;BME280;53766;50.280;19.160;2023-05-23T11:24:19;97945.50;;;21.01;44.15
66857;BME280;53766;50.280;19.160;2023-05-23T11:26:57;97938.06;;;21.03;44.15
66857;BME280;53766;50.280;19.160;2023-05-23T11:29:27;97938.41;;;21.07;44.02
66857;BME280;53766;50.280;19.160;2023-05-23T11:31:58;97937.63;;;21.06;44.02
66857;BME280;53766;50.280;19.160;2023-05-23T11:34:26;97936.31;;;21.09;44.00
66857;BME280;53766;50.280;19.160;2023-05-23T11:36:54;97932.84;;;21.08;44.01
66857;BME280;53766;50.280;19.160;2023-05-23T11:39:22;97929.69;;;21.11;43.99
66857;BME280;53766;50.280;19.160;2023-05-23T11:42:00;97920.38;;;21.14;43.85
66857;BME280;53766;50.280;19.160;2023-05-23T11:44:28;97923.63;;;21.16;43.77
66857;BME280;53766;50.280;19.160;2023-05-23T11:47:00;97917.22;;;21.17;43.93
66857;BME280;53766;50.280;19.160;2023-05-23T11:49:29;97913.50;;;21.18;44.09
66857;BME280;53766;50.280;19.160;2023-05-23T11:51:58;97916.75;;;21.20;44.01
66857;BME280;53766;50.280;19.160;2023-05-23T11:54:27;97918.50;;;21.26;45.83
66857;BME280;53766;50.280;19.160;2023-05-23T11:56:55;97913.25;;;21.31;46.17
66857;BME280;53766;50.280;19.160;2023-05-23T11:59:25;97909.16;;;21.29;45.69
66857;BME280;53766;50.280;19.160;2023-05-23T12:01:53;97908.13;;;21.30;45.32
66857;BME280;53766;50.280;19.160;2023-05-23T12:04:21;97915.81;;;21.26;45.21
66857;BME280;53766;50.280;19.160;2023-05-23T12:06:49;97914.44;;;21.24;45.45
66857;BME280;53766;50.280;19.160;2023-05-23T12:09:16;97917.91;;;21.24;44.98
66857;BME280;53766;50.280;19.160;2023-05-23T12:11:44;97915.13;;;21.19;45.17
66857;BME280;53766;50.280;19.160;2023-05-23T12:14:16;97919.09;;;21.16;45.09
66857;BME280;53766;50.280;19.160;2023-05-23T12:16:45;97917.47;;;21.15;44.83
66857;BME280;53766;50.280;19.160;2023-05-23T12:19:16;97919.78;;;21.12;44.96
66857;BME280;53766;50.280;19.160;2023-05-23T12:21:48;97917.94;;;21.12;44.88
66857;BME280;53766;50.280;19.160;2023-05-23T12:26:53;97906.41;;;21.12;45.28
66857;BME280;53766;50.280;19.160;2023-05-23T12:29:28;97906.41;;;21.12;45.15
66857;BME280;53766;50.280;19.160;2023-05-23T12:31:58;97900.44;;;21.10;45.12
66857;BME280;53766;50.280;19.160;2023-05-23T12:34:26;97904.19;;;21.09;45.17
66857;BME280;53766;50.280;19.160;2023-05-23T12:36:58;97897.22;;;21.08;44.88
66857;BME280;53766;50.280;19.160;2023-05-23T12:39:44;97907.56;;;21.04;44.92
66857;BME280;53766;50.280;19.160;2023-05-23T12:42:12;97912.56;;;21.01;44.92
66857;BME280;53766;50.280;19.160;2023-05-23T12:44:40;97936.09;;;20.99;45.13
66857;BME280;53766;50.280;19.160;2023-05-23T12:47:09;97956.09;;;20.96;45.02
66857;BME280;53766;50.280;19.160;2023-05-23T12:49:37;97967.03;;;20.94;45.03
66857;BME280;53766;50.280;19.160;2023-05-23T12:52:05;97986.25;;;20.91;45.02
66857;BME280;53766;50.280;19.160;2023-05-23T12:54:32;97987.28;;;20.90;45.14
66857;BME280;53766;50.280;19.160;2023-05-23T12:57:00;97987.75;;;20.87;45.14
66857;BME280;53766;50.280;19.160;2023-05-23T12:59:27;98002.19;;;20.86;45.30
66857;BME280;53766;50.280;19.160;2023-05-23T13:01:55;97993.59;;;20.84;45.48
66857;BME280;53766;50.280;19.160;2023-05-23T13:04:22;98002.66;;;20.83;45.62
66857;BME280;53766;50.280;19.160;2023-05-23T13:06:50;98002.06;;;20.81;45.76
66857;BME280;53766;50.280;19.160;2023-05-23T13:09:18;98003.13;;;20.80;46.15
66857;BME280;53766;50.280;19.160;2023-05-23T13:11:46;98001.47;;;20.79;46.26
66857;BME280;53766;50.280;19.160;2023-05-23T13:14:14;98006.00;;;20.79;46.38
66857;BME280;53766;50.280;19.160;2023-05-23T13:16:41;98001.72;;;20.78;46.67